sensor_id;sensor_type;location;lat;lon;timestamp;temperature;humidity
435;DHT22;204;48.942;9.256;2022-12-20T00:01:30;5.70;1.00
435;DHT22;204;48.942;9.256;2022-12-20T00:03:57;5.70;1.00
435;DHT22;204;48.942;9.256;2022-12-20T00:06:23;5.80;1.00
435;DHT22;204;48.942;9.256;2022-12-20T00:08:58;5.80;1.00
435;DHT22;204;48.942;9.256;2022-12-20T00:11:25;5.80;1.00
435;DHT22;204;48.942;9.256;2022-12-20T00:13:51;5.80;1.00
435;DHT22;204;48.942;9.256;2022-12-20T00:16:19;5.80;1.00
435;DHT22;204;48.942;9.256;2022-12-20T00:18:46;5.80;1.00
435;DHT22;204;48.942;9.256;2022-12-20T00:21:13;5.80;1.00
435;DHT22;204;48.942;9.256;2022-12-20T00:23:39;5.80;1.00
435;DHT22;204;48.942;9.256;2022-12-20T00:26:16;5.80;1.00
435;DHT22;204;48.942;9.256;2022-12-20T00:28:43;5.80;1.00
435;DHT22;204;48.942;9.256;2022-12-20T00:31:11;5.70;1.00
435;DHT22;204;48.942;9.256;2022-12-20T00:33:38;5.70;1.00
435;DHT22;204;48.942;9.256;2022-12-20T00:36:05;5.70;1.00
435;DHT22;204;48.942;9.256;2022-12-20T00:38:31;5.70;1.00
435;DHT22;204;48.942;9.256;2022-12-20T00:41:14;5.80;1.00
435;DHT22;204;48.942;9.256;2022-12-20T00:43:40;5.80;1.00
435;DHT22;204;48.942;9.256;2022-12-20T00:46:07;5.70;1.00
435;DHT22;204;48.942;9.256;2022-12-20T00:48:34;5.70;1.00
435;DHT22;204;48.942;9.256;2022-12-20T00:51:05;5.70;1.00
435;DHT22;204;48.942;9.256;2022-12-20T00:53:32;5.80;1.00
435;DHT22;204;48.942;9.256;2022-12-20T00:55:57;5.80;1.00
435;DHT22;204;48.942;9.256;2022-12-20T00:58:24;5.90;1.00
435;DHT22;204;48.942;9.256;2022-12-20T01:00:50;6.00;1.00
435;DHT22;204;48.942;9.256;2022-12-20T01:03:15;6.00;1.00
435;DHT22;204;48.942;9.256;2022-12-20T01:06:01;6.00;1.00
435;DHT22;204;48.942;9.256;2022-12-20T01:08:28;6.10;1.00
435;DHT22;204;48.942;9.256;2022-12-20T01:11:16;6.20;1.00
435;DHT22;204;48.942;9.256;2022-12-20T01:13:45;6.20;1.00
435;DHT22;204;48.942;9.256;2022-12-20T01:16:11;6.20;1.00
435;DHT22;204;48.942;9.256;2022-12-20T01:18:37;6.10;1.00
435;DHT22;204;48.942;9.256;2022-12-20T01:21:06;6.20;1.00
435;DHT22;204;48.942;9.256;2022-12-20T01:23:32;6.20;1.00
435;DHT22;204;48.942;9.256;2022-12-20T01:25:59;6.20;1.00
435;DHT22;204;48.942;9.256;2022-12-20T01:28:25;6.10;1.00
435;DHT22;204;48.942;9.256;2022-12-20T01:30:51;6.10;1.00
435;DHT22;204;48.942;9.256;2022-12-20T01:33:17;6.20;1.00
435;DHT22;204;48.942;9.256;2022-12-20T01:35:53;6.10;1.00
435;DHT22;204;48.942;9.256;2022-12-20T01:38:18;6.20;1.00
435;DHT22;204;48.942;9.256;2022-12-20T01:40:44;6.20;1.00
435;DHT22;204;48.942;9.256;2022-12-20T01:43:12;6.20;1.00
435;DHT22;204;48.942;9.256;2022-12-20T01:45:39;6.20;1.00
435;DHT22;204;48.942;9.256;2022-12-20T01:48:05;6.10;1.00
435;DHT22;204;48.942;9.256;2022-12-20T01:50:31;6.00;1.00
435;DHT22;204;48.942;9.256;2022-12-20T01:52:57;6.00;1.00
435;DHT22;204;48.942;9.256;2022-12-20T01:55:25;5.90;1.00
435;DHT22;204;48.942;9.256;2022-12-20T01:58:02;5.80;1.00
435;DHT22;204;48.942;9.256;2022-12-20T02:00:29;5.80;1.00
435;DHT22;204;48.942;9.256;2022-12-20T02:02:58;5.80;1.00
435;DHT22;204;48.942;9.256;2022-12-20T02:05:25;5.80;1.00
435;DHT22;204;48.942;9.256;2022-12-20T02:07:53;5.80;1.00
435;DHT22;204;48.942;9.256;2022-12-20T02:10:22;5.80;1.00
435;DHT22;204;48.942;9.256;2022-12-20T02:12:50;5.90;1.00
435;DHT22;204;48.942;9.256;2022-12-20T02:15:53;5.90;1.00
435;DHT22;204;48.942;9.256;2022-12-20T02:18:38;5.80;1.00
435;DHT22;204;48.942;9.256;2022-12-20T02:21:30;5.80;1.00
435;DHT22;204;48.942;9.256;2022-12-20T02:27:09;5.90;1.00
435;DHT22;204;48.942;9.256;2022-12-20T02:35:01;5.80;1.00
435;DHT22;204;48.942;9.256;2022-12-20T02:37:27;5.80;1.00
435;DHT22;204;48.942;9.256;2022-12-20T02:39:52;5.80;1.00
435;DHT22;204;48.942;9.256;2022-12-20T02:42:21;5.80;1.00
435;DHT22;204;48.942;9.256;2022-12-20T02:45:05;5.80;1.00
435;DHT22;204;48.942;9.256;2022-12-20T02:47:58;5.80;1.00
435;DHT22;204;48.942;9.256;2022-12-20T02:50:35;5.80;1.00
435;DHT22;204;48.942;9.256;2022-12-20T02:53:03;5.70;1.00
435;DHT22;204;48.942;9.256;2022-12-20T02:55:58;5.70;1.00
435;DHT22;204;48.942;9.256;2022-12-20T02:58:33;5.60;1.00
435;DHT22;204;48.942;9.256;2022-12-20T03:01:05;5.60;1.00
435;DHT22;204;48.942;9.256;2022-12-20T03:03:34;5.60;1.00
435;DHT22;204;48.942;9.256;2022-12-20T03:06:00;5.50;1.00
435;DHT22;204;48.942;9.256;2022-12-20T03:08:26;5.50;1.00
435;DHT22;204;48.942;9.256;2022-12-20T03:10:53;5.60;1.00
435;DHT22;204;48.942;9.256;2022-12-20T03:13:19;5.50;1.00
435;DHT22;204;48.942;9.256;2022-12-20T03:15:44;5.50;1.00
435;DHT22;204;48.942;9.256;2022-12-20T03:18:10;5.50;1.00
435;DHT22;204;48.942;9.256;2022-12-20T03:20:36;5.40;1.00
435;DHT22;204;48.942;9.256;2022-12-20T03:23:01;5.50;1.00
435;DHT22;204;48.942;9.256;2022-12-20T03:25:27;5.50;1.00
435;DHT22;204;48.942;9.256;2022-12-20T03:27:53;5.50;1.00
435;DHT22;204;48.942;9.256;2022-12-20T03:30:19;5.50;1.00
435;DHT22;204;48.942;9.256;2022-12-20T03:32:45;5.50;1.00
435;DHT22;204;48.942;9.256;2022-12-20T03:35:10;5.50;1.00
435;DHT22;204;48.942;9.256;2022-12-20T03:37:36;5.60;1.00
435;DHT22;204;48.942;9.256;2022-12-20T03:40:02;5.60;1.00
435;DHT22;204;48.942;9.256;2022-12-20T03:42:28;5.70;1.00
435;DHT22;204;48.942;9.256;2022-12-20T03:44:53;5.70;1.00
435;DHT22;204;48.942;9.256;2022-12-20T03:47:19;5.70;1.00
435;DHT22;204;48.942;9.256;2022-12-20T03:49:44;5.70;1.00
435;DHT22;204;48.942;9.256;2022-12-20T03:52:11;5.70;1.00
435;DHT22;204;48.942;9.256;2022-12-20T03:54:37;5.70;1.00
435;DHT22;204;48.942;9.256;2022-12-20T03:57:03;5.70;1.00
435;DHT22;204;48.942;9.256;2022-12-20T03:59:29;5.80;1.00
435;DHT22;204;48.942;9.256;2022-12-20T04:01:54;5.80;1.00
435;DHT22;204;48.942;9.256;2022-12-20T04:04:20;5.80;1.00
435;DHT22;204;48.942;9.256;2022-12-20T04:06:46;5.80;1.00
435;DHT22;204;48.942;9.256;2022-12-20T04:09:12;5.80;1.00
435;DHT22;204;48.942;9.256;2022-12-20T04:11:38;5.80;1.00
435;DHT22;204;48.942;9.256;2022-12-20T04:14:04;5.90;1.00
435;DHT22;204;48.942;9.256;2022-12-20T04:16:30;5.90;1.00
435;DHT22;204;48.942;9.256;2022-12-20T04:18:56;5.90;1.00
435;DHT22;204;48.942;9.256;2022-12-20T04:21:24;6.00;1.00
435;DHT22;204;48.942;9.256;2022-12-20T04:23:50;6.00;1.00
435;DHT22;204;48.942;9.256;2022-12-20T04:26:16;6.00;1.00
435;DHT22;204;48.942;9.256;2022-12-20T04:28:42;6.00;1.00
435;DHT22;204;48.942;9.256;2022-12-20T04:31:07;6.00;1.00
435;DHT22;204;48.942;9.256;2022-12-20T04:33:34;6.00;1.00
435;DHT22;204;48.942;9.256;2022-12-20T04:35:59;6.00;1.00
435;DHT22;204;48.942;9.256;2022-12-20T04:38:25;6.00;1.00
435;DHT22;204;48.942;9.256;2022-12-20T04:40:52;6.00;1.00
435;DHT22;204;48.942;9.256;2022-12-20T04:43:18;6.00;1.00
435;DHT22;204;48.942;9.256;2022-12-20T04:45:45;6.00;1.00
435;DHT22;204;48.942;9.256;2022-12-20T04:48:11;6.00;1.00
435;DHT22;204;48.942;9.256;2022-12-20T04:50:37;6.00;1.00
435;DHT22;204;48.942;9.256;2022-12-20T04:53:03;6.00;1.00
435;DHT22;204;48.942;9.256;2022-12-20T04:55:48;6.00;1.00
435;DHT22;204;48.942;9.256;2022-12-20T04:58:13;6.00;1.00
435;DHT22;204;48.942;9.256;2022-12-20T05:00:39;6.00;1.00
435;DHT22;204;48.942;9.256;2022-12-20T05:03:05;6.00;1.00
435;DHT22;204;48.942;9.256;2022-12-20T05:05:30;6.00;1.00
435;DHT22;204;48.942;9.256;2022-12-20T05:07:56;6.00;1.00
435;DHT22;204;48.942;9.256;2022-12-20T05:10:22;5.90;1.00
435;DHT22;204;48.942;9.256;2022-12-20T05:12:47;5.90;1.00
435;DHT22;204;48.942;9.256;2022-12-20T05:15:13;5.80;1.00
435;DHT22;204;48.942;9.256;2022-12-20T05:17:38;5.80;1.00
435;DHT22;204;48.942;9.256;2022-12-20T05:20:06;5.80;1.00
435;DHT22;204;48.942;9.256;2022-12-20T05:22:32;5.70;1.00
435;DHT22;204;48.942;9.256;2022-12-20T05:25:16;5.80;1.00
435;DHT22;204;48.942;9.256;2022-12-20T05:28:01;5.80;1.00
435;DHT22;204;48.942;9.256;2022-12-20T05:30:26;5.80;1.00
435;DHT22;204;48.942;9.256;2022-12-20T05:32:52;5.80;1.00
435;DHT22;204;48.942;9.256;2022-12-20T05:35:18;5.80;1.00
435;DHT22;204;48.942;9.256;2022-12-20T05:37:44;5.80;1.00
435;DHT22;204;48.942;9.256;2022-12-20T05:40:10;5.70;1.00
435;DHT22;204;48.942;9.256;2022-12-20T05:42:36;5.70;1.00
435;DHT22;204;48.942;9.256;2022-12-20T05:45:01;5.70;1.00
435;DHT22;204;48.942;9.256;2022-12-20T05:47:27;5.70;1.00
435;DHT22;204;48.942;9.256;2022-12-20T05:49:55;5.70;1.00
435;DHT22;204;48.942;9.256;2022-12-20T05:52:20;5.70;1.00
435;DHT22;204;48.942;9.256;2022-12-20T05:54:46;5.60;1.00
435;DHT22;204;48.942;9.256;2022-12-20T05:57:11;5.60;1.00
435;DHT22;204;48.942;9.256;2022-12-20T05:59:38;5.60;1.00
435;DHT22;204;48.942;9.256;2022-12-20T06:02:05;5.70;1.00
435;DHT22;204;48.942;9.256;2022-12-20T06:04:31;5.70;1.00
435;DHT22;204;48.942;9.256;2022-12-20T06:06:57;5.80;1.00
435;DHT22;204;48.942;9.256;2022-12-20T06:09:24;5.80;1.00
435;DHT22;204;48.942;9.256;2022-12-20T06:11:49;5.80;1.00
435;DHT22;204;48.942;9.256;2022-12-20T06:14:15;5.90;1.00
435;DHT22;204;48.942;9.256;2022-12-20T06:16:40;5.90;1.00
435;DHT22;204;48.942;9.256;2022-12-20T06:19:06;6.00;1.00
435;DHT22;204;48.942;9.256;2022-12-20T06:21:32;6.00;1.00
435;DHT22;204;48.942;9.256;2022-12-20T06:23:57;6.00;1.00
435;DHT22;204;48.942;9.256;2022-12-20T06:26:23;6.00;1.00
435;DHT22;204;48.942;9.256;2022-12-20T06:28:49;6.00;1.00
435;DHT22;204;48.942;9.256;2022-12-20T06:31:18;6.00;1.00
435;DHT22;204;48.942;9.256;2022-12-20T06:33:44;6.00;1.00
435;DHT22;204;48.942;9.256;2022-12-20T06:36:10;6.00;1.00
435;DHT22;204;48.942;9.256;2022-12-20T06:38:36;6.00;1.00
435;DHT22;204;48.942;9.256;2022-12-20T06:41:01;6.00;1.00
435;DHT22;204;48.942;9.256;2022-12-20T06:43:27;6.00;1.00
435;DHT22;204;48.942;9.256;2022-12-20T06:45:53;6.00;1.00
435;DHT22;204;48.942;9.256;2022-12-20T06:48:18;6.00;1.00
435;DHT22;204;48.942;9.256;2022-12-20T06:50:47;6.00;1.00
435;DHT22;204;48.942;9.256;2022-12-20T06:53:13;6.00;1.00
435;DHT22;204;48.942;9.256;2022-12-20T06:55:39;6.10;1.00
435;DHT22;204;48.942;9.256;2022-12-20T06:58:04;6.10;1.00
435;DHT22;204;48.942;9.256;2022-12-20T07:00:30;6.00;1.00
435;DHT22;204;48.942;9.256;2022-12-20T07:02:56;6.00;1.00
435;DHT22;204;48.942;9.256;2022-12-20T07:05:21;5.90;1.00
435;DHT22;204;48.942;9.256;2022-12-20T07:07:47;5.90;1.00
435;DHT22;204;48.942;9.256;2022-12-20T07:10:13;5.90;1.00
435;DHT22;204;48.942;9.256;2022-12-20T07:12:38;5.80;1.00
435;DHT22;204;48.942;9.256;2022-12-20T07:15:05;5.80;1.00
435;DHT22;204;48.942;9.256;2022-12-20T07:17:32;5.80;1.00
435;DHT22;204;48.942;9.256;2022-12-20T07:19:57;5.90;1.00
435;DHT22;204;48.942;9.256;2022-12-20T07:22:23;5.90;1.00
435;DHT22;204;48.942;9.256;2022-12-20T07:24:48;5.90;1.00
435;DHT22;204;48.942;9.256;2022-12-20T07:27:14;5.90;1.00
435;DHT22;204;48.942;9.256;2022-12-20T07:29:40;5.90;1.00
435;DHT22;204;48.942;9.256;2022-12-20T07:32:06;5.90;1.00
435;DHT22;204;48.942;9.256;2022-12-20T07:34:32;5.90;1.00
435;DHT22;204;48.942;9.256;2022-12-20T07:36:58;5.90;1.00
435;DHT22;204;48.942;9.256;2022-12-20T07:39:23;5.80;1.00
435;DHT22;204;48.942;9.256;2022-12-20T07:41:53;5.80;1.00
435;DHT22;204;48.942;9.256;2022-12-20T07:44:20;5.80;1.00
435;DHT22;204;48.942;9.256;2022-12-20T07:46:45;5.80;1.00
435;DHT22;204;48.942;9.256;2022-12-20T07:49:11;5.80;1.00
435;DHT22;204;48.942;9.256;2022-12-20T07:51:46;5.90;1.00
435;DHT22;204;48.942;9.256;2022-12-20T07:54:29;5.90;1.00
435;DHT22;204;48.942;9.256;2022-12-20T07:57:02;6.00;1.00
435;DHT22;204;48.942;9.256;2022-12-20T07:59:39;6.20;1.00
435;DHT22;204;48.942;9.256;2022-12-20T08:02:08;6.30;1.00
435;DHT22;204;48.942;9.256;2022-12-20T08:04:36;6.40;1.00
435;DHT22;204;48.942;9.256;2022-12-20T08:07:02;6.50;1.00
435;DHT22;204;48.942;9.256;2022-12-20T08:09:30;6.60;1.00
435;DHT22;204;48.942;9.256;2022-12-20T08:11:58;6.70;1.00
435;DHT22;204;48.942;9.256;2022-12-20T08:14:23;6.80;1.00
435;DHT22;204;48.942;9.256;2022-12-20T08:16:49;6.90;1.00
435;DHT22;204;48.942;9.256;2022-12-20T08:19:15;6.90;1.00
435;DHT22;204;48.942;9.256;2022-12-20T08:21:40;7.00;1.00
435;DHT22;204;48.942;9.256;2022-12-20T08:24:06;7.10;1.00
435;DHT22;204;48.942;9.256;2022-12-20T08:26:39;7.20;1.00
435;DHT22;204;48.942;9.256;2022-12-20T08:29:05;7.20;1.00
435;DHT22;204;48.942;9.256;2022-12-20T08:31:31;7.30;1.00
435;DHT22;204;48.942;9.256;2022-12-20T08:33:56;7.40;1.00
435;DHT22;204;48.942;9.256;2022-12-20T08:36:22;7.40;1.00
435;DHT22;204;48.942;9.256;2022-12-20T08:38:47;7.40;1.00
435;DHT22;204;48.942;9.256;2022-12-20T08:41:14;7.40;1.00
435;DHT22;204;48.942;9.256;2022-12-20T08:43:41;7.50;1.00
435;DHT22;204;48.942;9.256;2022-12-20T08:46:08;7.60;1.00
435;DHT22;204;48.942;9.256;2022-12-20T08:48:34;7.60;1.00
435;DHT22;204;48.942;9.256;2022-12-20T08:51:02;7.60;1.00
435;DHT22;204;48.942;9.256;2022-12-20T08:53:29;7.70;1.00
435;DHT22;204;48.942;9.256;2022-12-20T08:56:06;7.70;1.00
435;DHT22;204;48.942;9.256;2022-12-20T08:58:33;7.60;1.00
435;DHT22;204;48.942;9.256;2022-12-20T09:00:59;7.60;1.00
435;DHT22;204;48.942;9.256;2022-12-20T09:03:25;7.60;1.00
435;DHT22;204;48.942;9.256;2022-12-20T09:05:52;7.70;1.00
435;DHT22;204;48.942;9.256;2022-12-20T09:08:17;7.80;1.00
435;DHT22;204;48.942;9.256;2022-12-20T09:10:43;7.90;1.00
435;DHT22;204;48.942;9.256;2022-12-20T09:13:09;8.00;1.00
435;DHT22;204;48.942;9.256;2022-12-20T09:15:35;8.10;1.00
435;DHT22;204;48.942;9.256;2022-12-20T09:18:01;8.30;1.00
435;DHT22;204;48.942;9.256;2022-12-20T09:20:27;8.30;1.00
435;DHT22;204;48.942;9.256;2022-12-20T09:22:53;8.30;1.00
435;DHT22;204;48.942;9.256;2022-12-20T09:25:19;8.30;1.00
435;DHT22;204;48.942;9.256;2022-12-20T09:27:44;8.40;1.00
435;DHT22;204;48.942;9.256;2022-12-20T09:30:10;8.50;1.00
435;DHT22;204;48.942;9.256;2022-12-20T09:32:36;8.60;1.00
435;DHT22;204;48.942;9.256;2022-12-20T09:35:02;8.80;1.00
435;DHT22;204;48.942;9.256;2022-12-20T09:37:31;9.00;1.00
435;DHT22;204;48.942;9.256;2022-12-20T09:39:57;9.00;1.00
435;DHT22;204;48.942;9.256;2022-12-20T09:42:26;9.20;1.00
435;DHT22;204;48.942;9.256;2022-12-20T09:44:56;9.20;1.00
435;DHT22;204;48.942;9.256;2022-12-20T09:47:25;9.40;1.00
435;DHT22;204;48.942;9.256;2022-12-20T09:49:54;9.50;1.00
435;DHT22;204;48.942;9.256;2022-12-20T10:00:26;9.50;1.00
435;DHT22;204;48.942;9.256;2022-12-20T10:02:52;9.30;1.00
435;DHT22;204;48.942;9.256;2022-12-20T10:05:33;9.30;1.00
435;DHT22;204;48.942;9.256;2022-12-20T10:10:33;9.20;1.00
435;DHT22;204;48.942;9.256;2022-12-20T10:21:16;9.40;1.00
435;DHT22;204;48.942;9.256;2022-12-20T10:26:11;9.60;1.00
435;DHT22;204;48.942;9.256;2022-12-20T10:28:37;9.70;1.00
435;DHT22;204;48.942;9.256;2022-12-20T10:31:10;9.80;1.00
435;DHT22;204;48.942;9.256;2022-12-20T10:33:37;9.90;1.00
435;DHT22;204;48.942;9.256;2022-12-20T10:38:46;9.90;1.00
435;DHT22;204;48.942;9.256;2022-12-20T10:41:54;9.90;1.00
435;DHT22;204;48.942;9.256;2022-12-20T10:44:25;10.00;1.00
435;DHT22;204;48.942;9.256;2022-12-20T10:47:00;10.20;1.00
435;DHT22;204;48.942;9.256;2022-12-20T10:51:55;10.30;1.00
435;DHT22;204;48.942;9.256;2022-12-20T10:56:59;10.30;1.00
435;DHT22;204;48.942;9.256;2022-12-20T10:59:35;10.30;1.00
435;DHT22;204;48.942;9.256;2022-12-20T11:05:22;10.40;1.00
435;DHT22;204;48.942;9.256;2022-12-20T11:10:22;10.60;1.00
435;DHT22;204;48.942;9.256;2022-12-20T11:12:56;10.60;1.00
435;DHT22;204;48.942;9.256;2022-12-20T11:15:29;10.70;1.00
435;DHT22;204;48.942;9.256;2022-12-20T11:18:00;10.90;1.00
435;DHT22;204;48.942;9.256;2022-12-20T11:21:20;11.00;1.00
435;DHT22;204;48.942;9.256;2022-12-20T11:26:35;11.20;1.00
435;DHT22;204;48.942;9.256;2022-12-20T11:37:25;11.40;1.00
435;DHT22;204;48.942;9.256;2022-12-20T11:43:06;11.50;1.00
435;DHT22;204;48.942;9.256;2022-12-20T11:48:50;11.50;1.00
435;DHT22;204;48.942;9.256;2022-12-20T11:56:50;11.40;1.00
435;DHT22;204;48.942;9.256;2022-12-20T11:59:42;11.40;1.00
435;DHT22;204;48.942;9.256;2022-12-20T12:02:13;11.30;1.00
435;DHT22;204;48.942;9.256;2022-12-20T12:04:44;11.20;1.00
435;DHT22;204;48.942;9.256;2022-12-20T12:07:26;11.20;1.00
435;DHT22;204;48.942;9.256;2022-12-20T12:09:58;11.20;1.00
435;DHT22;204;48.942;9.256;2022-12-20T12:15:41;11.20;1.00
435;DHT22;204;48.942;9.256;2022-12-20T12:18:23;11.30;1.00
435;DHT22;204;48.942;9.256;2022-12-20T12:23:38;11.50;1.00
435;DHT22;204;48.942;9.256;2022-12-20T12:26:27;11.50;1.00
435;DHT22;204;48.942;9.256;2022-12-20T12:29:01;11.50;1.00
435;DHT22;204;48.942;9.256;2022-12-20T12:31:41;11.50;1.00
435;DHT22;204;48.942;9.256;2022-12-20T12:39:47;11.40;1.00
435;DHT22;204;48.942;9.256;2022-12-20T12:45:04;11.40;1.00
435;DHT22;204;48.942;9.256;2022-12-20T12:47:43;11.40;1.00
435;DHT22;204;48.942;9.256;2022-12-20T12:50:36;11.50;1.00
435;DHT22;204;48.942;9.256;2022-12-20T12:53:05;11.50;1.00
435;DHT22;204;48.942;9.256;2022-12-20T13:11:36;11.10;1.00
435;DHT22;204;48.942;9.256;2022-12-20T13:16:46;10.80;1.00
435;DHT22;204;48.942;9.256;2022-12-20T13:21:39;10.70;1.00
435;DHT22;204;48.942;9.256;2022-12-20T13:27:22;10.60;1.00
435;DHT22;204;48.942;9.256;2022-12-20T13:29:55;10.50;1.00
435;DHT22;204;48.942;9.256;2022-12-20T13:32:57;10.40;1.00
435;DHT22;204;48.942;9.256;2022-12-20T13:40:43;10.50;1.00
435;DHT22;204;48.942;9.256;2022-12-20T13:43:27;10.70;1.00
435;DHT22;204;48.942;9.256;2022-12-20T13:45:59;10.80;1.00
435;DHT22;204;48.942;9.256;2022-12-20T13:48:35;10.90;1.00
435;DHT22;204;48.942;9.256;2022-12-20T13:51:04;10.90;1.00
435;DHT22;204;48.942;9.256;2022-12-20T13:53:32;11.00;1.00
435;DHT22;204;48.942;9.256;2022-12-20T13:59:02;10.90;1.00
435;DHT22;204;48.942;9.256;2022-12-20T14:01:29;10.90;1.00
435;DHT22;204;48.942;9.256;2022-12-20T14:03:56;10.80;1.00
435;DHT22;204;48.942;9.256;2022-12-20T14:06:23;10.80;1.00
435;DHT22;204;48.942;9.256;2022-12-20T14:08:51;10.90;1.00
435;DHT22;204;48.942;9.256;2022-12-20T14:11:22;10.90;1.00
435;DHT22;204;48.942;9.256;2022-12-20T14:16:20;10.90;1.00
435;DHT22;204;48.942;9.256;2022-12-20T14:18:48;10.90;1.00
435;DHT22;204;48.942;9.256;2022-12-20T14:21:14;10.90;1.00
435;DHT22;204;48.942;9.256;2022-12-20T14:23:46;10.80;1.00
435;DHT22;204;48.942;9.256;2022-12-20T14:26:15;10.70;1.00
435;DHT22;204;48.942;9.256;2022-12-20T14:28:46;10.70;1.00
435;DHT22;204;48.942;9.256;2022-12-20T14:31:47;10.60;1.00
435;DHT22;204;48.942;9.256;2022-12-20T14:34:17;10.50;1.00
435;DHT22;204;48.942;9.256;2022-12-20T14:36:49;10.50;1.00
435;DHT22;204;48.942;9.256;2022-12-20T14:39:27;10.50;1.00
435;DHT22;204;48.942;9.256;2022-12-20T14:42:01;10.60;1.00
435;DHT22;204;48.942;9.256;2022-12-20T14:44:29;10.60;1.00
435;DHT22;204;48.942;9.256;2022-12-20T14:46:57;10.70;1.00
435;DHT22;204;48.942;9.256;2022-12-20T14:52:45;10.70;1.00
435;DHT22;204;48.942;9.256;2022-12-20T14:57:28;10.60;1.00
435;DHT22;204;48.942;9.256;2022-12-20T15:10:54;10.40;1.00
435;DHT22;204;48.942;9.256;2022-12-20T15:13:37;10.30;1.00
435;DHT22;204;48.942;9.256;2022-12-20T15:16:19;10.20;1.00
435;DHT22;204;48.942;9.256;2022-12-20T15:18:49;10.10;1.00
435;DHT22;204;48.942;9.256;2022-12-20T15:23:46;10.10;1.00
435;DHT22;204;48.942;9.256;2022-12-20T15:26:16;10.10;1.00
435;DHT22;204;48.942;9.256;2022-12-20T15:28:43;10.10;1.00
435;DHT22;204;48.942;9.256;2022-12-20T15:31:13;10.00;1.00
435;DHT22;204;48.942;9.256;2022-12-20T15:33:40;9.90;1.00
435;DHT22;204;48.942;9.256;2022-12-20T15:36:17;9.90;1.00
435;DHT22;204;48.942;9.256;2022-12-20T15:38:44;9.90;1.00
435;DHT22;204;48.942;9.256;2022-12-20T15:43:53;9.90;1.00
435;DHT22;204;48.942;9.256;2022-12-20T15:46:19;9.90;1.00
435;DHT22;204;48.942;9.256;2022-12-20T15:48:45;10.00;1.00
435;DHT22;204;48.942;9.256;2022-12-20T15:53:57;10.00;1.00
435;DHT22;204;48.942;9.256;2022-12-20T15:56:24;10.00;1.00
435;DHT22;204;48.942;9.256;2022-12-20T15:58:50;10.00;1.00
435;DHT22;204;48.942;9.256;2022-12-20T16:01:23;10.00;1.00
435;DHT22;204;48.942;9.256;2022-12-20T16:03:50;10.00;1.00
435;DHT22;204;48.942;9.256;2022-12-20T16:06:15;10.00;1.00
435;DHT22;204;48.942;9.256;2022-12-20T16:08:41;10.00;1.00
435;DHT22;204;48.942;9.256;2022-12-20T16:11:21;10.00;1.00
435;DHT22;204;48.942;9.256;2022-12-20T16:13:47;10.00;1.00
435;DHT22;204;48.942;9.256;2022-12-20T16:16:24;9.90;1.00
435;DHT22;204;48.942;9.256;2022-12-20T16:18:49;10.00;1.00
435;DHT22;204;48.942;9.256;2022-12-20T16:21:20;9.90;1.00
435;DHT22;204;48.942;9.256;2022-12-20T16:23:47;9.90;1.00
435;DHT22;204;48.942;9.256;2022-12-20T16:26:16;9.80;1.00
435;DHT22;204;48.942;9.256;2022-12-20T16:28:42;9.80;1.00
435;DHT22;204;48.942;9.256;2022-12-20T16:31:10;9.80;1.00
435;DHT22;204;48.942;9.256;2022-12-20T16:33:36;9.70;1.00
435;DHT22;204;48.942;9.256;2022-12-20T16:36:01;9.80;1.00
435;DHT22;204;48.942;9.256;2022-12-20T16:38:27;9.70;1.00
435;DHT22;204;48.942;9.256;2022-12-20T16:40:52;9.70;1.00
435;DHT22;204;48.942;9.256;2022-12-20T16:43:18;9.70;1.00
435;DHT22;204;48.942;9.256;2022-12-20T16:45:44;9.70;1.00
435;DHT22;204;48.942;9.256;2022-12-20T16:48:09;9.70;1.00
435;DHT22;204;48.942;9.256;2022-12-20T16:50:36;9.70;1.00
435;DHT22;204;48.942;9.256;2022-12-20T16:53:11;9.70;1.00
435;DHT22;204;48.942;9.256;2022-12-20T16:55:37;9.70;1.00
435;DHT22;204;48.942;9.256;2022-12-20T16:58:02;9.70;1.00
435;DHT22;204;48.942;9.256;2022-12-20T17:00:28;9.70;1.00
435;DHT22;204;48.942;9.256;2022-12-20T17:02:53;9.70;1.00
435;DHT22;204;48.942;9.256;2022-12-20T17:05:32;9.70;1.00
435;DHT22;204;48.942;9.256;2022-12-20T17:07:58;9.70;1.00
435;DHT22;204;48.942;9.256;2022-12-20T17:10:25;9.70;1.00
435;DHT22;204;48.942;9.256;2022-12-20T17:12:51;9.70;1.00
435;DHT22;204;48.942;9.256;2022-12-20T17:15:29;9.70;1.00
435;DHT22;204;48.942;9.256;2022-12-20T17:17:55;9.70;1.00
435;DHT22;204;48.942;9.256;2022-12-20T17:20:22;9.80;1.00
435;DHT22;204;48.942;9.256;2022-12-20T17:22:51;9.70;1.00
435;DHT22;204;48.942;9.256;2022-12-20T17:25:23;9.70;1.00
435;DHT22;204;48.942;9.256;2022-12-20T17:27:50;9.70;1.00
435;DHT22;204;48.942;9.256;2022-12-20T17:30:16;9.70;1.00
435;DHT22;204;48.942;9.256;2022-12-20T17:32:42;9.70;1.00
435;DHT22;204;48.942;9.256;2022-12-20T17:35:28;9.80;1.00
435;DHT22;204;48.942;9.256;2022-12-20T17:37:55;9.70;1.00
435;DHT22;204;48.942;9.256;2022-12-20T17:40:23;9.60;1.00
435;DHT22;204;48.942;9.256;2022-12-20T17:42:49;9.60;1.00
435;DHT22;204;48.942;9.256;2022-12-20T17:45:30;9.60;1.00
435;DHT22;204;48.942;9.256;2022-12-20T17:47:56;9.60;1.00
435;DHT22;204;48.942;9.256;2022-12-20T17:50:22;9.60;1.00
435;DHT22;204;48.942;9.256;2022-12-20T17:52:49;9.70;1.00
435;DHT22;204;48.942;9.256;2022-12-20T17:55:18;9.70;1.00
435;DHT22;204;48.942;9.256;2022-12-20T17:57:44;9.80;1.00
435;DHT22;204;48.942;9.256;2022-12-20T18:00:35;9.70;1.00
435;DHT22;204;48.942;9.256;2022-12-20T18:03:00;9.80;1.00
435;DHT22;204;48.942;9.256;2022-12-20T18:05:26;9.80;1.00
435;DHT22;204;48.942;9.256;2022-12-20T18:07:55;9.80;1.00
435;DHT22;204;48.942;9.256;2022-12-20T18:10:22;9.80;1.00
435;DHT22;204;48.942;9.256;2022-12-20T18:12:48;9.70;1.00
435;DHT22;204;48.942;9.256;2022-12-20T18:15:15;9.70;1.00
435;DHT22;204;48.942;9.256;2022-12-20T18:17:41;9.70;1.00
435;DHT22;204;48.942;9.256;2022-12-20T18:20:08;9.70;1.00
435;DHT22;204;48.942;9.256;2022-12-20T18:22:35;9.70;1.00
435;DHT22;204;48.942;9.256;2022-12-20T18:25:00;9.70;1.00
435;DHT22;204;48.942;9.256;2022-12-20T18:27:36;9.70;1.00
435;DHT22;204;48.942;9.256;2022-12-20T18:30:02;9.70;1.00
435;DHT22;204;48.942;9.256;2022-12-20T18:32:28;9.60;1.00
435;DHT22;204;48.942;9.256;2022-12-20T18:34:54;9.60;1.00
435;DHT22;204;48.942;9.256;2022-12-20T18:37:20;9.60;1.00
435;DHT22;204;48.942;9.256;2022-12-20T18:39:45;9.50;1.00
435;DHT22;204;48.942;9.256;2022-12-20T18:42:11;9.50;1.00
435;DHT22;204;48.942;9.256;2022-12-20T18:44:36;9.40;1.00
435;DHT22;204;48.942;9.256;2022-12-20T18:47:02;9.40;1.00
435;DHT22;204;48.942;9.256;2022-12-20T18:49:28;9.40;1.00
435;DHT22;204;48.942;9.256;2022-12-20T18:51:54;9.40;1.00
435;DHT22;204;48.942;9.256;2022-12-20T18:54:19;9.40;1.00
435;DHT22;204;48.942;9.256;2022-12-20T18:56:45;9.40;1.00
435;DHT22;204;48.942;9.256;2022-12-20T18:59:10;9.30;1.00
435;DHT22;204;48.942;9.256;2022-12-20T19:01:37;9.30;1.00
435;DHT22;204;48.942;9.256;2022-12-20T19:04:04;9.30;1.00
435;DHT22;204;48.942;9.256;2022-12-20T19:06:31;9.20;1.00
435;DHT22;204;48.942;9.256;2022-12-20T19:09:03;9.20;1.00
435;DHT22;204;48.942;9.256;2022-12-20T19:11:29;9.30;1.00
435;DHT22;204;48.942;9.256;2022-12-20T19:13:55;9.30;1.00
435;DHT22;204;48.942;9.256;2022-12-20T19:16:22;9.30;1.00
435;DHT22;204;48.942;9.256;2022-12-20T19:18:49;9.30;1.00
435;DHT22;204;48.942;9.256;2022-12-20T19:21:16;9.30;1.00
435;DHT22;204;48.942;9.256;2022-12-20T19:23:43;9.30;1.00
435;DHT22;204;48.942;9.256;2022-12-20T19:26:12;9.30;1.00
435;DHT22;204;48.942;9.256;2022-12-20T19:28:39;9.30;1.00
435;DHT22;204;48.942;9.256;2022-12-20T19:33:43;9.30;1.00
435;DHT22;204;48.942;9.256;2022-12-20T19:36:27;9.40;1.00
435;DHT22;204;48.942;9.256;2022-12-20T19:38:55;9.40;1.00
435;DHT22;204;48.942;9.256;2022-12-20T19:41:23;9.40;1.00